sensor_id;sensor_type;location;lat;lon;timestamp;P1;durP1;ratioP1;P2;durP2;ratioP2
11092;SDS011;5600;50.864;6.102;2023-04-03T00:02:01;57.93;;;6.80;;
11092;SDS011;5600;50.864;6.102;2023-04-03T00:05:02;69.17;;;6.70;;
11092;SDS011;5600;50.864;6.102;2023-04-03T00:08:04;58.57;;;5.97;;
11092;SDS011;5600;50.864;6.102;2023-04-03T00:11:08;57.70;;;5.77;;
11092;SDS011;5600;50.864;6.102;2023-04-03T00:14:09;62.33;;;6.53;;
11092;SDS011;5600;50.864;6.102;2023-04-03T00:17:11;62.23;;;5.90;;
11092;SDS011;5600;50.864;6.102;2023-04-03T00:20:12;58.63;;;5.93;;
11092;SDS011;5600;50.864;6.102;2023-04-03T00:23:13;66.97;;;6.53;;
11092;SDS011;5600;50.864;6.102;2023-04-03T00:26:14;55.50;;;5.97;;
11092;SDS011;5600;50.864;6.102;2023-04-03T00:29:16;61.57;;;6.13;;
11092;SDS011;5600;50.864;6.102;2023-04-03T00:32:17;65.90;;;6.30;;
11092;SDS011;5600;50.864;6.102;2023-04-03T00:35:19;55.37;;;6.03;;
11092;SDS011;5600;50.864;6.102;2023-04-03T00:38:21;49.13;;;6.13;;
11092;SDS011;5600;50.864;6.102;2023-04-03T00:41:22;63.00;;;6.43;;
11092;SDS011;5600;50.864;6.102;2023-04-03T00:47:33;63.67;;;6.40;;
11092;SDS011;5600;50.864;6.102;2023-04-03T00:50:36;81.90;;;7.40;;
11092;SDS011;5600;50.864;6.102;2023-04-03T00:53:39;51.33;;;5.73;;
11092;SDS011;5600;50.864;6.102;2023-04-03T00:56:43;57.10;;;6.27;;
11092;SDS011;5600;50.864;6.102;2023-04-03T00:59:46;59.57;;;5.83;;
11092;SDS011;5600;50.864;6.102;2023-04-03T01:02:51;60.33;;;6.00;;
11092;SDS011;5600;50.864;6.102;2023-04-03T01:05:52;61.13;;;6.13;;
11092;SDS011;5600;50.864;6.102;2023-04-03T01:08:53;55.33;;;6.00;;
11092;SDS011;5600;50.864;6.102;2023-04-03T01:12:12;57.30;;;6.10;;
11092;SDS011;5600;50.864;6.102;2023-04-03T01:15:22;66.20;;;6.73;;
11092;SDS011;5600;50.864;6.102;2023-04-03T01:18:26;48.03;;;6.30;;
11092;SDS011;5600;50.864;6.102;2023-04-03T01:24:37;51.17;;;6.30;;
11092;SDS011;5600;50.864;6.102;2023-04-03T01:27:41;88.10;;;8.23;;
11092;SDS011;5600;50.864;6.102;2023-04-03T01:30:44;71.63;;;7.67;;
11092;SDS011;5600;50.864;6.102;2023-04-03T01:33:54;74.67;;;7.40;;
11092;SDS011;5600;50.864;6.102;2023-04-03T01:36:56;61.67;;;6.57;;
11092;SDS011;5600;50.864;6.102;2023-04-03T01:39:57;62.73;;;6.73;;
11092;SDS011;5600;50.864;6.102;2023-04-03T01:42:58;72.80;;;6.77;;
11092;SDS011;5600;50.864;6.102;2023-04-03T01:46:00;95.10;;;7.80;;
11092;SDS011;5600;50.864;6.102;2023-04-03T01:49:01;60.43;;;6.00;;
11092;SDS011;5600;50.864;6.102;2023-04-03T01:52:02;55.80;;;5.57;;
11092;SDS011;5600;50.864;6.102;2023-04-03T01:55:03;67.57;;;6.63;;
11092;SDS011;5600;50.864;6.102;2023-04-03T01:58:05;62.87;;;6.43;;
11092;SDS011;5600;50.864;6.102;2023-04-03T02:01:06;69.07;;;6.67;;
11092;SDS011;5600;50.864;6.102;2023-04-03T02:04:07;60.80;;;6.50;;
11092;SDS011;5600;50.864;6.102;2023-04-03T02:07:08;65.07;;;6.00;;
11092;SDS011;5600;50.864;6.102;2023-04-03T02:10:09;86.93;;;7.50;;
11092;SDS011;5600;50.864;6.102;2023-04-03T02:13:10;61.63;;;5.87;;
11092;SDS011;5600;50.864;6.102;2023-04-03T02:16:11;65.20;;;6.30;;
11092;SDS011;5600;50.864;6.102;2023-04-03T02:19:13;75.47;;;6.37;;
11092;SDS011;5600;50.864;6.102;2023-04-03T02:22:15;54.43;;;5.87;;
11092;SDS011;5600;50.864;6.102;2023-04-03T02:25:16;77.00;;;7.07;;
11092;SDS011;5600;50.864;6.102;2023-04-03T02:28:18;70.97;;;6.80;;
11092;SDS011;5600;50.864;6.102;2023-04-03T02:31:19;47.83;;;5.67;;
11092;SDS011;5600;50.864;6.102;2023-04-03T02:34:22;65.40;;;6.90;;
11092;SDS011;5600;50.864;6.102;2023-04-03T02:37:23;62.97;;;6.63;;
11092;SDS011;5600;50.864;6.102;2023-04-03T02:40:27;68.80;;;6.67;;
11092;SDS011;5600;50.864;6.102;2023-04-03T02:43:28;50.20;;;5.60;;
11092;SDS011;5600;50.864;6.102;2023-04-03T02:46:29;60.10;;;5.73;;
11092;SDS011;5600;50.864;6.102;2023-04-03T02:49:30;60.87;;;6.07;;
11092;SDS011;5600;50.864;6.102;2023-04-03T02:52:32;65.97;;;6.10;;
11092;SDS011;5600;50.864;6.102;2023-04-03T02:55:33;68.97;;;6.47;;
11092;SDS011;5600;50.864;6.102;2023-04-03T02:58:34;62.50;;;6.30;;
11092;SDS011;5600;50.864;6.102;2023-04-03T03:01:37;57.53;;;6.10;;
11092;SDS011;5600;50.864;6.102;2023-04-03T03:04:38;59.23;;;6.27;;
11092;SDS011;5600;50.864;6.102;2023-04-03T03:07:39;68.13;;;6.67;;
11092;SDS011;5600;50.864;6.102;2023-04-03T03:10:40;64.77;;;6.50;;
11092;SDS011;5600;50.864;6.102;2023-04-03T03:13:41;50.83;;;5.47;;
11092;SDS011;5600;50.864;6.102;2023-04-03T03:16:43;56.70;;;5.70;;
11092;SDS011;5600;50.864;6.102;2023-04-03T03:19:45;63.57;;;5.77;;
11092;SDS011;5600;50.864;6.102;2023-04-03T03:22:46;51.90;;;5.57;;
11092;SDS011;5600;50.864;6.102;2023-04-03T03:25:47;65.93;;;6.77;;
11092;SDS011;5600;50.864;6.102;2023-04-03T03:28:48;57.30;;;6.27;;
11092;SDS011;5600;50.864;6.102;2023-04-03T03:31:49;51.47;;;6.33;;
11092;SDS011;5600;50.864;6.102;2023-04-03T03:34:50;63.07;;;6.57;;
11092;SDS011;5600;50.864;6.102;2023-04-03T03:37:51;70.03;;;7.23;;
11092;SDS011;5600;50.864;6.102;2023-04-03T03:40:52;67.00;;;6.70;;
11092;SDS011;5600;50.864;6.102;2023-04-03T03:43:55;66.80;;;10.17;;
11092;SDS011;5600;50.864;6.102;2023-04-03T03:46:57;64.63;;;7.17;;
11092;SDS011;5600;50.864;6.102;2023-04-03T03:49:59;75.33;;;6.83;;
11092;SDS011;5600;50.864;6.102;2023-04-03T03:53:02;42.27;;;6.03;;
11092;SDS011;5600;50.864;6.102;2023-04-03T03:56:03;65.00;;;6.70;;
11092;SDS011;5600;50.864;6.102;2023-04-03T03:59:05;59.73;;;6.47;;
11092;SDS011;5600;50.864;6.102;2023-04-03T04:02:06;67.77;;;6.67;;
11092;SDS011;5600;50.864;6.102;2023-04-03T04:05:08;53.37;;;5.93;;
11092;SDS011;5600;50.864;6.102;2023-04-03T04:08:09;51.97;;;6.13;;
11092;SDS011;5600;50.864;6.102;2023-04-03T04:11:10;60.63;;;6.50;;
11092;SDS011;5600;50.864;6.102;2023-04-03T04:14:13;65.90;;;6.93;;
11092;SDS011;5600;50.864;6.102;2023-04-03T04:17:16;60.40;;;6.80;;
11092;SDS011;5600;50.864;6.102;2023-04-03T04:20:17;57.07;;;6.80;;
11092;SDS011;5600;50.864;6.102;2023-04-03T04:23:18;50.43;;;5.93;;
11092;SDS011;5600;50.864;6.102;2023-04-03T04:26:20;71.23;;;7.03;;
11092;SDS011;5600;50.864;6.102;2023-04-03T04:29:22;59.63;;;6.60;;
11092;SDS011;5600;50.864;6.102;2023-04-03T04:32:25;67.20;;;6.70;;
11092;SDS011;5600;50.864;6.102;2023-04-03T04:35:26;69.17;;;7.27;;
11092;SDS011;5600;50.864;6.102;2023-04-03T04:38:28;60.77;;;7.30;;
11092;SDS011;5600;50.864;6.102;2023-04-03T04:41:29;45.53;;;6.43;;
11092;SDS011;5600;50.864;6.102;2023-04-03T04:44:31;70.13;;;7.53;;
11092;SDS011;5600;50.864;6.102;2023-04-03T04:47:32;68.37;;;7.17;;
11092;SDS011;5600;50.864;6.102;2023-04-03T04:50:33;83.37;;;8.77;;
11092;SDS011;5600;50.864;6.102;2023-04-03T04:53:35;67.87;;;7.87;;
11092;SDS011;5600;50.864;6.102;2023-04-03T04:56:36;66.03;;;10.43;;
11092;SDS011;5600;50.864;6.102;2023-04-03T04:59:38;53.77;;;8.27;;
11092;SDS011;5600;50.864;6.102;2023-04-03T05:02:41;54.80;;;7.00;;
11092;SDS011;5600;50.864;6.102;2023-04-03T05:05:42;76.03;;;15.00;;
11092;SDS011;5600;50.864;6.102;2023-04-03T05:08:44;64.80;;;9.07;;
11092;SDS011;5600;50.864;6.102;2023-04-03T05:11:45;76.87;;;9.10;;
11092;SDS011;5600;50.864;6.102;2023-04-03T05:14:49;76.50;;;8.93;;
11092;SDS011;5600;50.864;6.102;2023-04-03T05:17:50;79.20;;;9.30;;
11092;SDS011;5600;50.864;6.102;2023-04-03T05:20:51;80.67;;;9.43;;
11092;SDS011;5600;50.864;6.102;2023-04-03T05:23:54;65.20;;;8.77;;
11092;SDS011;5600;50.864;6.102;2023-04-03T05:26:55;92.17;;;10.17;;
11092;SDS011;5600;50.864;6.102;2023-04-03T05:29:56;69.93;;;9.33;;
11092;SDS011;5600;50.864;6.102;2023-04-03T05:32:59;70.63;;;9.10;;
11092;SDS011;5600;50.864;6.102;2023-04-03T05:36:09;71.37;;;9.27;;
11092;SDS011;5600;50.864;6.102;2023-04-03T05:39:16;58.33;;;9.30;;
11092;SDS011;5600;50.864;6.102;2023-04-03T05:42:20;73.67;;;9.90;;
11092;SDS011;5600;50.864;6.102;2023-04-03T05:45:21;79.73;;;10.60;;
11092;SDS011;5600;50.864;6.102;2023-04-03T05:48:23;81.90;;;10.87;;
11092;SDS011;5600;50.864;6.102;2023-04-03T05:51:25;62.37;;;10.90;;
11092;SDS011;5600;50.864;6.102;2023-04-03T05:54:39;57.57;;;10.00;;
11092;SDS011;5600;50.864;6.102;2023-04-03T05:57:48;83.63;;;10.93;;
11092;SDS011;5600;50.864;6.102;2023-04-03T06:00:50;79.53;;;13.43;;
11092;SDS011;5600;50.864;6.102;2023-04-03T06:03:52;68.87;;;10.97;;
11092;SDS011;5600;50.864;6.102;2023-04-03T06:06:54;68.63;;;10.07;;
11092;SDS011;5600;50.864;6.102;2023-04-03T06:09:56;66.30;;;10.17;;
11092;SDS011;5600;50.864;6.102;2023-04-03T06:12:58;64.80;;;10.37;;
11092;SDS011;5600;50.864;6.102;2023-04-03T06:16:00;65.13;;;9.67;;
11092;SDS011;5600;50.864;6.102;2023-04-03T06:19:01;60.27;;;9.40;;
11092;SDS011;5600;50.864;6.102;2023-04-03T06:22:03;56.63;;;8.60;;
11092;SDS011;5600;50.864;6.102;2023-04-03T06:25:04;57.67;;;8.23;;
11092;SDS011;5600;50.864;6.102;2023-04-03T06:28:07;47.80;;;8.67;;
11092;SDS011;5600;50.864;6.102;2023-04-03T06:31:10;48.77;;;8.77;;
11092;SDS011;5600;50.864;6.102;2023-04-03T06:34:11;78.47;;;10.17;;
11092;SDS011;5600;50.864;6.102;2023-04-03T06:37:15;63.37;;;9.50;;
11092;SDS011;5600;50.864;6.102;2023-04-03T06:40:19;73.43;;;11.83;;
11092;SDS011;5600;50.864;6.102;2023-04-03T06:43:23;83.57;;;11.63;;
11092;SDS011;5600;50.864;6.102;2023-04-03T06:46:25;20.87;;;7.27;;
11092;SDS011;5600;50.864;6.102;2023-04-03T06:49:29;49.40;;;7.70;;
11092;SDS011;5600;50.864;6.102;2023-04-03T06:52:30;56.20;;;7.43;;
11092;SDS011;5600;50.864;6.102;2023-04-03T06:55:35;36.20;;;6.33;;
11092;SDS011;5600;50.864;6.102;2023-04-03T06:58:39;37.67;;;6.30;;
11092;SDS011;5600;50.864;6.102;2023-04-03T07:01:41;58.57;;;6.90;;
11092;SDS011;5600;50.864;6.102;2023-04-03T07:04:42;63.77;;;7.17;;
11092;SDS011;5600;50.864;6.102;2023-04-03T07:07:44;56.00;;;6.73;;
11092;SDS011;5600;50.864;6.102;2023-04-03T07:10:45;59.60;;;6.37;;
11092;SDS011;5600;50.864;6.102;2023-04-03T07:13:46;89.80;;;8.43;;
11092;SDS011;5600;50.864;6.102;2023-04-03T07:16:48;70.17;;;6.77;;
11092;SDS011;5600;50.864;6.102;2023-04-03T07:19:50;67.37;;;6.37;;
11092;SDS011;5600;50.864;6.102;2023-04-03T07:22:52;48.30;;;5.47;;
11092;SDS011;5600;50.864;6.102;2023-04-03T07:25:53;61.67;;;6.30;;
11092;SDS011;5600;50.864;6.102;2023-04-03T07:28:54;59.83;;;5.67;;
11092;SDS011;5600;50.864;6.102;2023-04-03T07:31:56;59.37;;;5.47;;
11092;SDS011;5600;50.864;6.102;2023-04-03T07:34:58;64.70;;;5.90;;
11092;SDS011;5600;50.864;6.102;2023-04-03T07:37:59;61.77;;;5.90;;
11092;SDS011;5600;50.864;6.102;2023-04-03T07:41:00;69.43;;;6.10;;
11092;SDS011;5600;50.864;6.102;2023-04-03T07:44:01;64.70;;;5.77;;
11092;SDS011;5600;50.864;6.102;2023-04-03T07:47:03;61.97;;;5.70;;
11092;SDS011;5600;50.864;6.102;2023-04-03T07:50:04;63.83;;;5.87;;
11092;SDS011;5600;50.864;6.102;2023-04-03T07:53:05;52.40;;;4.67;;
11092;SDS011;5600;50.864;6.102;2023-04-03T07:56:06;43.73;;;4.33;;
11092;SDS011;5600;50.864;6.102;2023-04-03T07:59:09;50.97;;;4.50;;
11092;SDS011;5600;50.864;6.102;2023-04-03T08:02:11;53.63;;;4.87;;
11092;SDS011;5600;50.864;6.102;2023-04-03T08:05:12;52.13;;;4.77;;
11092;SDS011;5600;50.864;6.102;2023-04-03T08:08:16;64.20;;;5.13;;
11092;SDS011;5600;50.864;6.102;2023-04-03T08:11:20;44.63;;;4.17;;
11092;SDS011;5600;50.864;6.102;2023-04-03T08:14:21;54.97;;;4.67;;
11092;SDS011;5600;50.864;6.102;2023-04-03T08:17:22;37.27;;;3.97;;
11092;SDS011;5600;50.864;6.102;2023-04-03T08:20:23;50.00;;;4.87;;
11092;SDS011;5600;50.864;6.102;2023-04-03T08:23:28;37.73;;;3.60;;
11092;SDS011;5600;50.864;6.102;2023-04-03T08:26:37;49.20;;;4.23;;
11092;SDS011;5600;50.864;6.102;2023-04-03T08:29:39;43.73;;;4.07;;
11092;SDS011;5600;50.864;6.102;2023-04-03T08:32:40;57.43;;;4.93;;
11092;SDS011;5600;50.864;6.102;2023-04-03T08:35:45;51.10;;;4.50;;
11092;SDS011;5600;50.864;6.102;2023-04-03T08:38:47;37.27;;;3.77;;
11092;SDS011;5600;50.864;6.102;2023-04-03T08:42:02;43.30;;;4.33;;
11092;SDS011;5600;50.864;6.102;2023-04-03T08:45:50;41.60;;;4.03;;
11092;SDS011;5600;50.864;6.102;2023-04-03T08:48:57;35.57;;;3.87;;
11092;SDS011;5600;50.864;6.102;2023-04-03T08:52:01;60.20;;;4.73;;
11092;SDS011;5600;50.864;6.102;2023-04-03T08:58:30;49.87;;;4.70;;
11092;SDS011;5600;50.864;6.102;2023-04-03T09:01:41;40.10;;;3.83;;
11092;SDS011;5600;50.864;6.102;2023-04-03T09:04:43;42.67;;;4.00;;
11092;SDS011;5600;50.864;6.102;2023-04-03T09:07:45;64.63;;;5.37;;
11092;SDS011;5600;50.864;6.102;2023-04-03T09:17:59;106.33;;;7.30;;
11092;SDS011;5600;50.864;6.102;2023-04-03T09:21:24;59.53;;;5.00;;
11092;SDS011;5600;50.864;6.102;2023-04-03T09:24:34;61.87;;;4.90;;
11092;SDS011;5600;50.864;6.102;2023-04-03T09:27:41;53.23;;;4.70;;
11092;SDS011;5600;50.864;6.102;2023-04-03T09:30:42;45.50;;;4.30;;
11092;SDS011;5600;50.864;6.102;2023-04-03T09:33:44;66.77;;;5.10;;
11092;SDS011;5600;50.864;6.102;2023-04-03T09:36:50;58.80;;;4.53;;
11092;SDS011;5600;50.864;6.102;2023-04-03T09:39:53;50.40;;;4.43;;
11092;SDS011;5600;50.864;6.102;2023-04-03T09:42:57;85.90;;;6.93;;
11092;SDS011;5600;50.864;6.102;2023-04-03T09:46:21;100.37;;;6.87;;
11092;SDS011;5600;50.864;6.102;2023-04-03T09:49:29;79.20;;;6.00;;
11092;SDS011;5600;50.864;6.102;2023-04-03T09:52:31;63.30;;;5.03;;
11092;SDS011;5600;50.864;6.102;2023-04-03T09:55:41;59.43;;;4.43;;
11092;SDS011;5600;50.864;6.102;2023-04-03T09:58:45;67.47;;;5.30;;
11092;SDS011;5600;50.864;6.102;2023-04-03T10:01:59;29.67;;;3.37;;
11092;SDS011;5600;50.864;6.102;2023-04-03T10:08:32;51.63;;;4.20;;
11092;SDS011;5600;50.864;6.102;2023-04-03T10:11:35;46.03;;;3.90;;
11092;SDS011;5600;50.864;6.102;2023-04-03T10:14:41;76.13;;;5.27;;
11092;SDS011;5600;50.864;6.102;2023-04-03T10:18:03;67.27;;;4.70;;
11092;SDS011;5600;50.864;6.102;2023-04-03T10:21:33;56.00;;;4.10;;
11092;SDS011;5600;50.864;6.102;2023-04-03T10:25:04;57.27;;;4.60;;
11092;SDS011;5600;50.864;6.102;2023-04-03T10:28:31;46.07;;;4.20;;
11092;SDS011;5600;50.864;6.102;2023-04-03T10:31:49;47.03;;;3.87;;
11092;SDS011;5600;50.864;6.102;2023-04-03T10:35:18;65.13;;;4.67;;
11092;SDS011;5600;50.864;6.102;2023-04-03T10:38:44;46.97;;;3.70;;
11092;SDS011;5600;50.864;6.102;2023-04-03T10:42:00;58.60;;;4.27;;
11092;SDS011;5600;50.864;6.102;2023-04-03T10:54:39;75.27;;;4.80;;
11092;SDS011;5600;50.864;6.102;2023-04-03T10:57:49;90.63;;;5.33;;
11092;SDS011;5600;50.864;6.102;2023-04-03T11:00:51;60.73;;;4.17;;
11092;SDS011;5600;50.864;6.102;2023-04-03T11:03:56;85.93;;;5.07;;
11092;SDS011;5600;50.864;6.102;2023-04-03T11:07:10;103.77;;;5.87;;
11092;SDS011;5600;50.864;6.102;2023-04-03T11:14:00;82.50;;;5.33;;
11092;SDS011;5600;50.864;6.102;2023-04-03T11:20:24;75.20;;;5.10;;
11092;SDS011;5600;50.864;6.102;2023-04-03T11:23:36;52.07;;;4.70;;
11092;SDS011;5600;50.864;6.102;2023-04-03T11:26:40;70.90;;;4.47;;
11092;SDS011;5600;50.864;6.102;2023-04-03T11:29:42;150.30;;;7.83;;
11092;SDS011;5600;50.864;6.102;2023-04-03T11:32:51;81.10;;;5.03;;
11092;SDS011;5600;50.864;6.102;2023-04-03T11:36:06;116.53;;;6.97;;
11092;SDS011;5600;50.864;6.102;2023-04-03T11:39:21;128.87;;;7.03;;
11092;SDS011;5600;50.864;6.102;2023-04-03T11:42:40;103.20;;;5.83;;
11092;SDS011;5600;50.864;6.102;2023-04-03T11:45:53;89.03;;;5.23;;
11092;SDS011;5600;50.864;6.102;2023-04-03T11:49:11;67.77;;;4.43;;
11092;SDS011;5600;50.864;6.102;2023-04-03T11:59:15;68.60;;;4.40;;
11092;SDS011;5600;50.864;6.102;2023-04-03T12:02:39;41.67;;;3.40;;
11092;SDS011;5600;50.864;6.102;2023-04-03T12:05:40;54.23;;;3.73;;
11092;SDS011;5600;50.864;6.102;2023-04-03T12:11:42;40.37;;;3.13;;
11092;SDS011;5600;50.864;6.102;2023-04-03T12:14:43;60.17;;;4.20;;
11092;SDS011;5600;50.864;6.102;2023-04-03T12:17:44;60.40;;;4.13;;
11092;SDS011;5600;50.864;6.102;2023-04-03T12:20:46;73.90;;;4.70;;
11092;SDS011;5600;50.864;6.102;2023-04-03T12:24:00;55.80;;;3.77;;
11092;SDS011;5600;50.864;6.102;2023-04-03T12:30:29;78.07;;;4.77;;
11092;SDS011;5600;50.864;6.102;2023-04-03T12:37:14;82.73;;;5.13;;
11092;SDS011;5600;50.864;6.102;2023-04-03T12:40:43;77.60;;;5.00;;
11092;SDS011;5600;50.864;6.102;2023-04-03T12:44:12;62.37;;;4.23;;
11092;SDS011;5600;50.864;6.102;2023-04-03T12:47:38;62.70;;;4.07;;
11092;SDS011;5600;50.864;6.102;2023-04-03T12:50:43;89.73;;;5.47;;
11092;SDS011;5600;50.864;6.102;2023-04-03T12:53:47;82.80;;;5.23;;
11092;SDS011;5600;50.864;6.102;2023-04-03T12:56:51;76.50;;;4.80;;
11092;SDS011;5600;50.864;6.102;2023-04-03T13:03:27;85.27;;;4.97;;
11092;SDS011;5600;50.864;6.102;2023-04-03T13:06:39;73.93;;;4.50;;
11092;SDS011;5600;50.864;6.102;2023-04-03T13:09:42;64.60;;;4.30;;
11092;SDS011;5600;50.864;6.102;2023-04-03T13:15:48;64.80;;;4.33;;
11092;SDS011;5600;50.864;6.102;2023-04-03T13:18:51;71.55;;;4.57;;
11092;SDS011;5600;50.864;6.102;2023-04-03T13:22:04;133.27;;;7.13;;
11092;SDS011;5600;50.864;6.102;2023-04-03T13:25:08;85.13;;;5.37;;
11092;SDS011;5600;50.864;6.102;2023-04-03T13:28:13;74.40;;;4.60;;
11092;SDS011;5600;50.864;6.102;2023-04-03T13:34:20;76.43;;;4.67;;
11092;SDS011;5600;50.864;6.102;2023-04-03T13:37:30;117.93;;;6.57;;
11092;SDS011;5600;50.864;6.102;2023-04-03T13:40:33;96.43;;;5.80;;
11092;SDS011;5600;50.864;6.102;2023-04-03T13:43:35;80.32;;;5.28;;
11092;SDS011;5600;50.864;6.102;2023-04-03T13:46:37;70.87;;;4.73;;
11092;SDS011;5600;50.864;6.102;2023-04-03T13:49:39;71.10;;;4.68;;
11092;SDS011;5600;50.864;6.102;2023-04-03T13:52:43;76.03;;;4.57;;
11092;SDS011;5600;50.864;6.102;2023-04-03T13:56:08;68.15;;;4.47;;
11092;SDS011;5600;50.864;6.102;2023-04-03T14:02:18;75.53;;;4.67;;
11092;SDS011;5600;50.864;6.102;2023-04-03T14:05:40;83.90;;;5.47;;
11092;SDS011;5600;50.864;6.102;2023-04-03T14:08:42;82.18;;;5.13;;
11092;SDS011;5600;50.864;6.102;2023-04-03T14:11:44;68.75;;;4.30;;
11092;SDS011;5600;50.864;6.102;2023-04-03T14:14:47;63.05;;;4.28;;
11092;SDS011;5600;50.864;6.102;2023-04-03T14:17:48;79.05;;;5.15;;
11092;SDS011;5600;50.864;6.102;2023-04-03T14:20:51;91.85;;;5.53;;
11092;SDS011;5600;50.864;6.102;2023-04-03T14:23:52;75.47;;;4.70;;
11092;SDS011;5600;50.864;6.102;2023-04-03T14:26:54;70.43;;;4.63;;
11092;SDS011;5600;50.864;6.102;2023-04-03T14:29:56;86.10;;;5.05;;
11092;SDS011;5600;50.864;6.102;2023-04-03T14:32:59;68.53;;;4.40;;
11092;SDS011;5600;50.864;6.102;2023-04-03T14:36:01;69.93;;;4.38;;
11092;SDS011;5600;50.864;6.102;2023-04-03T14:39:06;64.78;;;4.32;;
11092;SDS011;5600;50.864;6.102;2023-04-03T14:42:13;56.05;;;3.95;;
11092;SDS011;5600;50.864;6.102;2023-04-03T14:45:16;36.97;;;2.92;;
11092;SDS011;5600;50.864;6.102;2023-04-03T14:48:22;53.50;;;3.65;;
11092;SDS011;5600;50.864;6.102;2023-04-03T14:51:26;70.97;;;4.55;;
11092;SDS011;5600;50.864;6.102;2023-04-03T14:54:27;59.60;;;4.38;;
11092;SDS011;5600;50.864;6.102;2023-04-03T14:57:29;52.63;;;3.72;;
11092;SDS011;5600;50.864;6.102;2023-04-03T15:00:30;79.50;;;4.65;;
11092;SDS011;5600;50.864;6.102;2023-04-03T15:03:32;65.57;;;4.13;;
11092;SDS011;5600;50.864;6.102;2023-04-03T15:06:33;66.32;;;4.28;;
11092;SDS011;5600;50.864;6.102;2023-04-03T15:09:34;56.83;;;3.65;;
11092;SDS011;5600;50.864;6.102;2023-04-03T15:12:36;95.85;;;5.55;;
11092;SDS011;5600;50.864;6.102;2023-04-03T15:15:37;62.55;;;4.10;;
11092;SDS011;5600;50.864;6.102;2023-04-03T15:18:38;64.28;;;4.07;;
11092;SDS011;5600;50.864;6.102;2023-04-03T15:21:39;69.35;;;4.25;;
11092;SDS011;5600;50.864;6.102;2023-04-03T15:24:41;63.10;;;4.03;;
11092;SDS011;5600;50.864;6.102;2023-04-03T15:27:42;62.70;;;4.18;;
11092;SDS011;5600;50.864;6.102;2023-04-03T15:30:44;76.38;;;4.70;;
11092;SDS011;5600;50.864;6.102;2023-04-03T15:33:45;71.57;;;4.60;;
11092;SDS011;5600;50.864;6.102;2023-04-03T15:36:46;74.70;;;4.57;;
11092;SDS011;5600;50.864;6.102;2023-04-03T15:39:47;83.70;;;5.00;;
11092;SDS011;5600;50.864;6.102;2023-04-03T15:42:48;91.10;;;5.27;;
11092;SDS011;5600;50.864;6.102;2023-04-03T15:45:49;66.73;;;4.33;;
11092;SDS011;5600;50.864;6.102;2023-04-03T15:48:50;75.90;;;4.70;;
11092;SDS011;5600;50.864;6.102;2023-04-03T15:51:52;59.67;;;3.97;;
11092;SDS011;5600;50.864;6.102;2023-04-03T15:54:53;90.47;;;5.20;;
11092;SDS011;5600;50.864;6.102;2023-04-03T15:57:54;74.00;;;4.47;;
11092;SDS011;5600;50.864;6.102;2023-04-03T16:00:55;54.53;;;3.70;;
11092;SDS011;5600;50.864;6.102;2023-04-03T16:03:56;75.53;;;4.70;;
11092;SDS011;5600;50.864;6.102;2023-04-03T16:07:00;88.67;;;5.57;;
11092;SDS011;5600;50.864;6.102;2023-04-03T16:10:02;303.50;;;14.60;;
11092;SDS011;5600;50.864;6.102;2023-04-03T16:13:04;77.37;;;4.73;;
11092;SDS011;5600;50.864;6.102;2023-04-03T16:16:06;78.73;;;4.80;;
11092;SDS011;5600;50.864;6.102;2023-04-03T16:19:07;76.07;;;4.70;;
11092;SDS011;5600;50.864;6.102;2023-04-03T16:22:10;63.23;;;4.07;;
11092;SDS011;5600;50.864;6.102;2023-04-03T16:25:11;71.93;;;4.50;;
11092;SDS011;5600;50.864;6.102;2023-04-03T16:28:12;57.93;;;3.77;;
11092;SDS011;5600;50.864;6.102;2023-04-03T16:31:13;77.17;;;4.60;;
11092;SDS011;5600;50.864;6.102;2023-04-03T16:34:15;60.00;;;4.00;;
11092;SDS011;5600;50.864;6.102;2023-04-03T16:37:16;46.47;;;3.33;;
11092;SDS011;5600;50.864;6.102;2023-04-03T16:40:17;53.83;;;3.57;;
11092;SDS011;5600;50.864;6.102;2023-04-03T16:43:18;59.80;;;4.37;;
11092;SDS011;5600;50.864;6.102;2023-04-03T16:46:19;75.00;;;4.67;;
11092;SDS011;5600;50.864;6.102;2023-04-03T16:49:20;57.80;;;4.03;;
11092;SDS011;5600;50.864;6.102;2023-04-03T16:52:21;68.40;;;4.27;;
11092;SDS011;5600;50.864;6.102;2023-04-03T16:55:22;63.17;;;4.37;;
11092;SDS011;5600;50.864;6.102;2023-04-03T16:58:24;67.73;;;4.40;;
11092;SDS011;5600;50.864;6.102;2023-04-03T17:01:25;59.93;;;3.90;;
11092;SDS011;5600;50.864;6.102;2023-04-03T17:04:25;58.23;;;4.03;;
11092;SDS011;5600;50.864;6.102;2023-04-03T17:07:27;55.83;;;4.00;;
11092;SDS011;5600;50.864;6.102;2023-04-03T17:10:28;76.50;;;4.97;;
11092;SDS011;5600;50.864;6.102;2023-04-03T17:13:29;55.47;;;3.67;;
11092;SDS011;5600;50.864;6.102;2023-04-03T17:16:32;44.87;;;3.57;;
11092;SDS011;5600;50.864;6.102;2023-04-03T17:19:35;42.43;;;3.20;;
11092;SDS011;5600;50.864;6.102;2023-04-03T17:22:37;87.23;;;5.83;;
11092;SDS011;5600;50.864;6.102;2023-04-03T17:25:39;68.43;;;4.67;;
11092;SDS011;5600;50.864;6.102;2023-04-03T17:28:40;59.53;;;4.20;;
11092;SDS011;5600;50.864;6.102;2023-04-03T17:31:41;88.50;;;5.23;;
11092;SDS011;5600;50.864;6.102;2023-04-03T17:34:42;90.70;;;5.40;;
11092;SDS011;5600;50.864;6.102;2023-04-03T17:37:46;92.37;;;5.30;;
11092;SDS011;5600;50.864;6.102;2023-04-03T17:40:48;78.90;;;5.03;;
11092;SDS011;5600;50.864;6.102;2023-04-03T17:43:50;57.07;;;4.00;;
11092;SDS011;5600;50.864;6.102;2023-04-03T17:46:51;80.13;;;5.20;;
11092;SDS011;5600;50.864;6.102;2023-04-03T17:49:51;57.77;;;4.03;;
11092;SDS011;5600;50.864;6.102;2023-04-03T17:52:52;70.70;;;4.43;;
11092;SDS011;5600;50.864;6.102;2023-04-03T17:55:53;59.70;;;4.20;;
11092;SDS011;5600;50.864;6.102;2023-04-03T17:58:54;85.70;;;5.17;;
11092;SDS011;5600;50.864;6.102;2023-04-03T18:01:57;58.70;;;3.67;;
11092;SDS011;5600;50.864;6.102;2023-04-03T18:04:58;71.00;;;4.47;;
11092;SDS011;5600;50.864;6.102;2023-04-03T18:07:59;40.10;;;3.20;;
11092;SDS011;5600;50.864;6.102;2023-04-03T18:11:00;78.10;;;5.00;;
11092;SDS011;5600;50.864;6.102;2023-04-03T18:14:02;65.57;;;4.27;;
11092;SDS011;5600;50.864;6.102;2023-04-03T18:17:05;91.93;;;5.43;;
11092;SDS011;5600;50.864;6.102;2023-04-03T18:20:06;71.40;;;4.63;;
11092;SDS011;5600;50.864;6.102;2023-04-03T18:23:09;99.30;;;5.70;;
11092;SDS011;5600;50.864;6.102;2023-04-03T18:26:10;86.00;;;5.23;;
11092;SDS011;5600;50.864;6.102;2023-04-03T18:29:13;79.67;;;5.07;;
11092;SDS011;5600;50.864;6.102;2023-04-03T18:32:15;79.93;;;4.97;;
11092;SDS011;5600;50.864;6.102;2023-04-03T18:35:17;73.73;;;4.90;;
11092;SDS011;5600;50.864;6.102;2023-04-03T18:38:18;74.13;;;4.43;;
11092;SDS011;5600;50.864;6.102;2023-04-03T18:41:20;62.07;;;4.17;;
11092;SDS011;5600;50.864;6.102;2023-04-03T18:44:24;106.63;;;6.03;;
11092;SDS011;5600;50.864;6.102;2023-04-03T18:47:27;72.63;;;4.63;;
11092;SDS011;5600;50.864;6.102;2023-04-03T18:50:28;97.70;;;5.63;;
11092;SDS011;5600;50.864;6.102;2023-04-03T18:53:29;79.93;;;5.07;;
11092;SDS011;5600;50.864;6.102;2023-04-03T18:56:30;75.00;;;4.73;;
11092;SDS011;5600;50.864;6.102;2023-04-03T18:59:31;76.47;;;5.00;;
11092;SDS011;5600;50.864;6.102;2023-04-03T19:02:32;59.97;;;4.10;;
11092;SDS011;5600;50.864;6.102;2023-04-03T19:05:36;52.33;;;3.53;;
11092;SDS011;5600;50.864;6.102;2023-04-03T19:08:36;64.50;;;4.27;;
11092;SDS011;5600;50.864;6.102;2023-04-03T19:11:38;43.10;;;3.27;;
11092;SDS011;5600;50.864;6.102;2023-04-03T19:14:39;34.73;;;2.77;;
11092;SDS011;5600;50.864;6.102;2023-04-03T19:17:40;59.53;;;4.23;;
11092;SDS011;5600;50.864;6.102;2023-04-03T19:20:41;55.63;;;4.03;;
11092;SDS011;5600;50.864;6.102;2023-04-03T19:23:42;55.43;;;4.07;;
11092;SDS011;5600;50.864;6.102;2023-04-03T19:26:44;33.63;;;3.10;;
11092;SDS011;5600;50.864;6.102;2023-04-03T19:29:47;53.70;;;3.67;;
11092;SDS011;5600;50.864;6.102;2023-04-03T19:32:48;41.63;;;3.40;;